Time;durP1;ratioP1;P1;durP2;ratioP2;P2;SDS_P1;SDS_P2;PMS_P1;PMS_P2;Temp;Humidity;BMP_temperature;BMP_pressure;BME280_temperature;BME280_humidity;BME280_pressure;Samples;Min_cycle;Max_cycle;Signal;HPM_P1;HPM_P2
2022/06/08 00:02:24;;;;;;;3.40;1.70;;;;;;;22.41;58.00;98863.59;4475797;31;33224;-87
2022/06/08 00:04:53;;;;;;;2.47;1.52;;;;;;;22.20;58.81;98858.94;4475260;31;34154;-88
2022/06/08 00:07:23;;;;;;;2.47;1.40;;;;;;;22.30;58.46;98859.09;4475527;31;34014;-88
2022/06/08 00:09:52;;;;;;;3.85;1.50;;;;;;;22.28;58.29;98861.03;4480769;31;34229;-88
2022/06/08 00:12:21;;;;;;;2.42;1.48;;;;;;;22.14;58.60;98870.78;4475456;31;33153;-89
2022/06/08 00:14:49;;;;;;;3.20;1.90;;;;;;;22.26;58.20;98862.94;4479818;31;33767;-88
2022/06/08 00:17:18;;;;;;;2.58;1.62;;;;;;;22.49;57.60;98863.84;4475203;31;33608;-88
2022/06/08 00:19:47;;;;;;;2.28;1.37;;;;;;;22.48;57.62;98865.66;4473746;31;33558;-88
2022/06/08 00:22:19;;;;;;;3.08;1.80;;;;;;;22.41;58.02;98866.25;4475187;31;33176;-88
2022/06/08 00:24:49;;;;;;;1.87;1.58;;;;;;;22.16;59.40;98854.84;4480182;31;34540;-88
2022/06/08 00:27:18;;;;;;;2.92;1.75;;;;;;;22.08;60.07;98855.38;4475607;31;35771;-87
2022/06/08 00:29:47;;;;;;;3.10;1.67;;;;;;;22.04;60.96;98848.66;4475633;31;34231;-87
2022/06/08 00:32:17;;;;;;;3.00;1.70;;;;;;;21.71;61.25;98859.88;4475659;31;34789;-87
2022/06/08 00:34:46;;;;;;;2.25;1.58;;;;;;;21.57;61.22;98857.41;4473461;31;34119;-87
2022/06/08 00:37:15;;;;;;;2.60;1.65;;;;;;;21.64;61.85;98859.47;4480981;31;33635;-87
2022/06/08 00:39:44;;;;;;;2.25;1.50;;;;;;;21.80;61.19;98864.50;4475350;31;33501;-87
2022/06/08 00:42:14;;;;;;;1.45;1.12;;;;;;;21.88;60.67;98861.31;4475254;31;34307;-87
2022/06/08 00:44:46;;;;;;;3.03;1.60;;;;;;;21.78;60.68;98847.94;4475388;31;34342;-87
2022/06/08 00:47:18;;;;;;;2.08;1.50;;;;;;;22.08;59.74;98854.53;4475309;31;33959;-87
2022/06/08 00:49:49;;;;;;;2.30;1.70;;;;;;;22.03;59.94;98865.44;4480903;31;34146;-87
2022/06/08 00:52:18;;;;;;;9.15;2.15;;;;;;;21.91;60.07;98883.03;4475678;32;32625;-87
2022/06/08 00:54:51;;;;;;;2.90;1.60;;;;;;;21.79;61.52;98962.28;4473480;31;33568;-87
2022/06/08 00:57:24;;;;;;;1.98;1.50;;;;;;;22.02;60.56;98979.16;4475398;31;33997;-88
2022/06/08 00:59:56;;;;;;;3.97;1.40;;;;;;;22.00;60.30;98955.47;4475104;32;34324;-87
2022/06/08 01:02:25;;;;;;;1.85;1.30;;;;;;;22.19;59.68;98925.09;4465323;32;33315;-87
2022/06/08 01:05:21;;;;;;;2.22;1.27;;;;;;;22.22;58.84;98917.81;4466124;32;34575;-88
2022/06/08 01:07:52;;;;;;;2.90;1.60;;;;;;;22.22;58.83;98912.53;4463897;32;33643;-87
2022/06/08 01:10:23;;;;;;;3.00;1.60;;;;;;;22.07;59.49;98913.63;4477565;32;33390;-87
2022/06/08 01:12:54;;;;;;;1.50;1.12;;;;;;;22.02;59.71;98916.59;4479548;32;33905;-86
2022/06/08 01:15:25;;;;;;;2.70;1.62;;;;;;;21.96;60.00;98911.75;4465224;32;33395;-87
2022/06/08 01:17:54;;;;;;;3.40;1.52;;;;;;;21.77;61.52;98908.75;4468427;32;34753;-86
2022/06/08 01:20:24;;;;;;;2.17;1.50;;;;;;;21.74;62.00;98901.91;4469833;32;33711;-86
2022/06/08 01:22:54;;;;;;;1.60;1.15;;;;;;;21.40;63.30;98906.94;4464638;32;33307;-87
2022/06/08 01:25:23;;;;;;;2.58;1.55;;;;;;;21.26;63.57;98901.75;4471073;32;35214;-86
2022/06/08 01:28:00;;;;;;;2.95;1.40;;;;;;;21.08;63.80;98903.87;4480279;32;33721;-86
2022/06/08 01:30:44;;;;;;;2.03;1.37;;;;;;;20.51;66.42;98912.09;4479694;32;34120;-85
2022/06/08 01:33:44;;;;;;;1.65;1.23;;;;;;;20.74;66.82;98902.72;4481337;32;33365;-84
2022/06/08 01:36:30;;;;;;;2.62;1.37;;;;;;;20.73;67.18;98893.97;4485361;32;34555;-83
2022/06/08 01:39:04;;;;;;;2.30;1.40;;;;;;;20.19;69.11;98896.66;4486044;32;33728;-82
2022/06/08 01:41:48;;;;;;;2.10;1.30;;;;;;;19.95;70.25;98899.06;4479244;32;33795;-83
2022/06/08 01:44:37;;;;;;;3.45;1.75;;;;;;;20.37;69.77;98881.41;4474871;32;34125;-83
2022/06/08 01:47:12;;;;;;;3.22;1.52;;;;;;;20.27;71.08;98875.06;4476607;32;33831;-83
2022/06/08 01:49:44;;;;;;;1.75;1.25;;;;;;;20.67;68.80;98871.47;4479772;32;34801;-83
2022/06/08 01:52:30;;;;;;;8.93;3.12;;;;;;;20.58;68.66;98866.00;4479950;32;34826;-83
2022/06/08 01:55:07;;;;;;;2.60;1.65;;;;;;;20.42;68.98;98864.38;4476918;32;31622;-83
2022/06/08 01:57:47;;;;;;;3.55;1.92;;;;;;;20.53;68.74;98874.16;4469740;32;34785;-83
2022/06/08 02:00:20;;;;;;;2.22;1.48;;;;;;;20.70;68.14;98888.87;4481962;32;33996;-83
2022/06/08 02:02:58;;;;;;;2.05;1.40;;;;;;;20.30;69.08;98888.87;4479938;32;33771;-83
2022/06/08 02:05:33;;;;;;;1.62;1.02;;;;;;;20.48;69.39;98896.50;4479596;32;33390;-83
2022/06/08 02:08:06;;;;;;;1.77;1.20;;;;;;;20.65;69.40;98894.44;4479762;32;33872;-83
2022/06/08 02:10:41;;;;;;;3.28;1.55;;;;;;;21.02;68.48;98896.37;4479460;32;34648;-83
2022/06/08 02:13:17;;;;;;;1.67;1.10;;;;;;;21.08;68.20;98906.50;4479066;32;34571;-84
2022/06/08 02:15:52;;;;;;;1.55;1.27;;;;;;;21.19;68.03;98913.66;4472099;32;32507;-84
2022/06/08 02:18:26;;;;;;;1.50;1.30;;;;;;;21.34;66.78;98917.91;4479719;32;33839;-84
2022/06/08 02:20:58;;;;;;;2.62;1.42;;;;;;;21.37;66.33;98919.47;4479443;32;34617;-84
2022/06/08 02:23:31;;;;;;;1.75;1.35;;;;;;;20.83;68.76;98918.75;4479255;32;34373;-84
2022/06/08 02:26:04;;;;;;;1.73;1.20;;;;;;;21.08;67.34;98917.91;4479796;32;33242;-84
2022/06/08 02:28:35;;;;;;;1.92;1.37;;;;;;;20.99;67.45;98921.16;4479850;32;33815;-84
2022/06/08 02:31:09;;;;;;;2.00;1.25;;;;;;;20.82;68.25;98905.66;4485232;32;34952;-83
2022/06/08 02:36:31;;;;;;;1.95;1.37;;;;;;;20.46;69.50;98910.66;4479927;32;33326;-84
2022/06/08 02:39:03;;;;;;;2.17;1.48;;;;;;;20.32;70.87;98910.72;4478448;32;33143;-84
2022/06/08 02:41:35;;;;;;;2.00;1.20;;;;;;;20.36;70.36;98919.25;4479689;32;34837;-84
2022/06/08 02:44:08;;;;;;;2.75;1.45;;;;;;;20.51;71.43;98927.91;4479093;32;33853;-83
2022/06/08 02:46:42;;;;;;;1.75;1.30;;;;;;;20.31;72.06;98922.19;4485082;32;34227;-83
2022/06/08 02:49:11;;;;;;;1.95;1.35;;;;;;;20.49;70.62;98906.97;4479727;32;34479;-82
2022/06/08 02:51:42;;;;;;;4.65;1.87;;;;;;;20.29;71.12;98891.62;4478789;32;33980;-83
2022/06/08 02:54:15;;;;;;;3.65;1.92;;;;;;;19.96;72.83;98874.47;4472352;32;33512;-83
2022/06/08 02:57:01;;;;;;;2.85;1.85;;;;;;;19.37;75.51;98864.94;4477925;32;33410;-82
2022/06/08 02:59:37;;;;;;;3.67;1.73;;;;;;;19.00;77.61;98871.66;4479530;32;34569;-82
2022/06/08 03:02:10;;;;;;;3.45;1.75;;;;;;;19.15;76.93;98875.13;4470361;32;34117;-83
2022/06/08 03:04:43;;;;;;;4.82;2.35;;;;;;;19.21;76.62;98885.28;4466352;32;33565;-82
2022/06/08 03:07:16;;;;;;;4.00;2.00;;;;;;;19.55;76.68;98899.81;4469050;32;32569;-83
2022/06/08 03:09:45;;;;;;;3.62;2.12;;;;;;;19.50;75.45;98899.25;4479487;32;33250;-82
2022/06/08 03:12:22;;;;;;;2.85;1.80;;;;;;;19.40;75.71;98904.25;4479047;32;33894;-83
2022/06/08 03:14:51;;;;;;;2.97;1.73;;;;;;;19.62;74.10;98911.63;4472266;32;34510;-82
2022/06/08 03:17:27;;;;;;;2.85;1.70;;;;;;;19.21;75.85;98908.06;4463642;32;34310;-82
2022/06/08 03:19:56;;;;;;;4.43;2.10;;;;;;;19.55;74.55;98909.50;4463632;32;34474;-83
2022/06/08 03:22:25;;;;;;;4.10;1.95;;;;;;;19.48;74.31;98909.00;4462951;32;34013;-83
2022/06/08 03:24:54;;;;;;;3.92;1.85;;;;;;;19.32;75.09;98924.06;4473471;32;34699;-83
2022/06/08 03:27:25;;;;;;;3.53;1.87;;;;;;;19.34;75.12;98925.66;4484765;32;33268;-83
2022/06/08 03:29:54;;;;;;;;;;;;;;;19.45;74.87;98924.13;4483775;32;33675;-83
2022/06/08 03:32:27;;;;;;;3.45;2.05;;;;;;;19.81;72.93;98921.00;4479076;32;34229;-83
2022/06/08 03:34:56;;;;;;;3.42;1.98;;;;;;;19.38;73.42;98921.91;4478614;32;34506;-83
2022/06/08 03:37:25;;;;;;;3.87;2.00;;;;;;;19.17;75.75;98926.69;4479039;32;34005;-83
2022/06/08 03:39:54;;;;;;;3.42;1.85;;;;;;;19.21;74.91;98921.22;4478989;32;34714;-83
2022/06/08 03:42:25;;;;;;;2.25;1.62;;;;;;;19.49;73.96;98930.91;4484555;32;34586;-83
2022/06/08 03:44:54;;;;;;;3.22;1.70;;;;;;;19.55;73.49;98926.09;4466987;32;32795;-83
2022/06/08 03:47:26;;;;;;;2.65;1.80;;;;;;;19.23;74.91;98917.56;4463262;32;33444;-83
2022/06/08 03:49:57;;;;;;;3.78;1.85;;;;;;;19.24;75.73;98910.53;4463448;32;33908;-82
2022/06/08 03:52:29;;;;;;;2.55;1.73;;;;;;;19.22;75.15;98907.16;4463288;32;34718;-82
2022/06/08 03:55:01;;;;;;;5.07;1.75;;;;;;;18.98;75.36;98899.81;4471767;32;33876;-82
2022/06/08 03:57:32;;;;;;;3.42;1.85;;;;;;;19.01;75.88;98901.41;4481575;32;33971;-82
2022/06/08 04:00:05;;;;;;;3.55;2.03;;;;;;;19.22;75.17;98897.47;4479245;32;34610;-82
2022/06/08 04:02:45;;;;;;;3.67;1.92;;;;;;;19.15;76.32;98907.50;4481614;32;34571;-82
2022/06/08 04:05:16;;;;;;;3.37;1.90;;;;;;;19.43;75.06;98899.72;4478861;32;33281;-83
2022/06/08 04:07:45;;;;;;;2.97;1.85;;;;;;;19.70;74.20;98895.37;4478822;32;34101;-82
2022/06/08 04:10:15;;;;;;;3.35;2.17;;;;;;;19.81;73.59;98899.94;4484051;32;33909;-82
2022/06/08 04:12:46;;;;;;;3.67;1.92;;;;;;;19.94;72.72;98910.56;4478680;32;36442;-82
2022/06/08 04:15:41;;;;;;;;;;;;;;;19.93;72.66;98919.37;4478989;32;33885;-82
2022/06/08 04:18:05;;;;;;;3.05;1.62;;;;;;;19.83;73.28;98919.13;4478527;32;33058;-82
2022/06/08 04:20:35;;;;;;;2.92;2.10;;;;;;;19.92;73.19;98915.91;4480084;32;33525;-82
2022/06/08 04:23:04;;;;;;;3.75;2.17;;;;;;;19.96;73.05;98908.69;4478842;32;34648;-83
2022/06/08 04:25:34;;;;;;;3.75;2.03;;;;;;;20.08;72.36;98917.56;4484284;32;33900;-82
2022/06/08 04:28:04;;;;;;;2.95;1.87;;;;;;;19.91;73.33;98908.97;4478461;32;32932;-83
2022/06/08 04:30:34;;;;;;;;;;;;;;;20.16;72.20;98910.84;4479161;32;35350;-83
2022/06/08 04:33:04;;;;;;;5.12;2.35;;;;;;;20.18;73.08;98913.41;4478359;32;34221;-82
2022/06/08 04:35:33;;;;;;;2.75;1.90;;;;;;;20.27;72.77;98914.56;4478522;32;34258;-82
2022/06/08 04:38:03;;;;;;;3.25;2.00;;;;;;;20.27;72.40;98915.41;4480053;32;33442;-82
2022/06/08 04:40:38;;;;;;;3.33;1.98;;;;;;;20.78;71.88;98912.94;4483719;32;34784;-83
2022/06/08 04:43:09;;;;;;;3.17;1.90;;;;;;;21.56;68.59;98916.44;4478571;32;33979;-83
2022/06/08 04:45:38;;;;;;;2.85;1.70;;;;;;;21.42;68.45;98909.47;4478554;32;33454;-83
2022/06/08 04:48:09;;;;;;;3.83;2.03;;;;;;;21.39;69.34;98907.03;4479529;32;33857;-83
2022/06/08 04:50:39;;;;;;;3.00;1.65;;;;;;;21.83;66.56;98901.25;4480491;32;34464;-83
2022/06/08 04:53:08;;;;;;;4.37;2.25;;;;;;;21.63;68.31;98907.12;4485912;32;33014;-83
2022/06/08 04:55:38;;;;;;;2.87;1.70;;;;;;;21.46;67.83;98903.03;4473607;32;33613;-83
2022/06/08 04:58:09;;;;;;;2.78;1.85;;;;;;;22.17;66.10;98907.53;4464661;32;33419;-83
2022/06/08 05:00:39;;;;;;;2.75;1.90;;;;;;;22.35;65.33;98892.16;4474660;32;33922;-83
2022/06/08 05:03:08;;;;;;;3.12;1.50;;;;;;;22.52;65.07;98897.97;4477369;32;34816;-83
2022/06/08 05:05:39;;;;;;;2.10;1.48;;;;;;;22.96;62.73;98891.97;4482427;32;33720;-83
2022/06/08 05:08:09;;;;;;;2.92;1.60;;;;;;;23.05;61.99;98903.69;4481476;32;33450;-83
2022/06/08 05:10:39;;;;;;;2.58;1.75;;;;;;;23.36;61.81;98904.75;4472087;32;34633;-83
2022/06/08 05:13:10;;;;;;;3.28;1.92;;;;;;;23.39;60.78;98909.81;4473811;32;33967;-83
2022/06/08 05:15:41;;;;;;;2.28;1.50;;;;;;;23.41;61.89;98913.19;4470848;32;34537;-83
2022/06/08 05:18:13;;;;;;;2.65;1.73;;;;;;;23.64;60.81;98913.16;4467446;32;33337;-83
2022/06/08 05:20:43;;;;;;;2.45;1.45;;;;;;;23.69;59.68;98916.28;4485598;32;33861;-83
2022/06/08 05:23:17;;;;;;;2.25;1.25;;;;;;;23.71;59.51;98922.31;4479501;31;33597;-83
2022/06/08 05:25:47;;;;;;;1.87;1.12;;;;;;;23.64;59.44;98926.41;4473951;32;33915;-83
2022/06/08 05:28:17;;;;;;;2.28;1.30;;;;;;;23.45;60.71;98924.38;4473953;32;33448;-83
2022/06/08 05:30:49;;;;;;;2.10;1.33;;;;;;;23.45;61.11;98929.66;4479766;32;33468;-83
2022/06/08 05:33:18;;;;;;;2.10;1.33;;;;;;;22.92;62.15;98932.81;4467963;32;32519;-84
2022/06/08 05:35:48;;;;;;;2.90;1.35;;;;;;;22.61;63.12;98936.09;4474635;32;33834;-84
2022/06/08 05:38:17;;;;;;;2.12;1.37;;;;;;;22.94;62.65;98935.38;4473163;32;34095;-84
2022/06/08 05:40:48;;;;;;;1.95;1.42;;;;;;;22.70;62.89;98933.59;4475381;32;33671;-84
2022/06/08 05:43:18;;;;;;;2.47;1.45;;;;;;;22.80;62.31;98925.81;4466282;32;33494;-84
2022/06/08 05:45:48;;;;;;;1.80;1.35;;;;;;;22.58;63.27;98924.78;4472032;32;34118;-84
2022/06/08 05:48:17;;;;;;;2.42;1.37;;;;;;;22.52;63.92;98930.56;4483724;32;34241;-84
2022/06/08 05:50:47;;;;;;;2.83;1.40;;;;;;;22.52;64.60;98933.19;4477829;32;34659;-84
2022/06/08 05:53:16;;;;;;;2.53;1.58;;;;;;;22.47;63.84;98942.41;4478674;32;34787;-84
2022/06/08 05:55:45;;;;;;;4.03;1.50;;;;;;;22.28;65.13;98959.66;4479573;32;34384;-84
2022/06/08 05:58:14;;;;;;;3.00;1.42;;;;;;;22.10;65.81;98966.22;4479979;32;33369;-84
2022/06/08 06:00:44;;;;;;;3.75;2.05;;;;;;;22.48;64.05;98970.53;4483778;32;32981;-84
2022/06/08 06:03:14;;;;;;;2.55;1.60;;;;;;;22.45;64.43;98970.78;4481044;32;34699;-83
2022/06/08 06:05:43;;;;;;;1.92;1.30;;;;;;;22.35;64.37;98979.37;4477688;32;33027;-83
2022/06/08 06:08:13;;;;;;;2.37;1.45;;;;;;;22.39;64.12;98971.22;4477692;32;33223;-84
2022/06/08 06:10:44;;;;;;;2.45;1.52;;;;;;;22.29;64.61;98973.69;4477513;32;33431;-83
2022/06/08 06:13:14;;;;;;;3.03;1.70;;;;;;;22.27;64.90;98971.16;4482501;32;33589;-83
2022/06/08 06:15:45;;;;;;;2.30;1.33;;;;;;;22.29;64.32;98971.06;4483589;32;34130;-83
2022/06/08 06:18:17;;;;;;;3.90;1.70;;;;;;;22.22;65.34;98964.53;4479538;32;33967;-83
2022/06/08 06:20:50;;;;;;;3.10;1.87;;;;;;;22.33;65.15;98967.25;4474436;32;33779;-83
2022/06/08 06:23:22;;;;;;;1.92;1.65;;;;;;;22.26;64.97;98960.72;4471854;32;33937;-84
2022/06/08 06:25:52;;;;;;;2.95;1.60;;;;;;;22.38;63.99;98957.16;4485069;32;33655;-84
2022/06/08 06:28:21;;;;;;;3.53;1.75;;;;;;;22.43;64.24;98956.84;4484520;32;33306;-84
2022/06/08 06:30:52;;;;;;;2.37;1.48;;;;;;;22.41;63.60;98953.44;4479777;32;34162;-84
2022/06/08 06:33:21;;;;;;;;;;;;;;;21.81;66.17;98961.22;4480007;32;33939;-84
2022/06/08 06:35:51;;;;;;;3.67;1.60;;;;;;;22.36;65.15;98957.28;4477720;32;34977;-84
2022/06/08 06:38:20;;;;;;;2.37;1.40;;;;;;;22.44;64.79;98961.97;4479345;32;33621;-84
2022/06/08 06:40:49;;;;;;;3.40;1.67;;;;;;;22.50;64.22;98958.91;4484837;32;33409;-83
2022/06/08 06:43:18;;;;;;;2.25;1.25;;;;;;;22.67;63.19;98949.72;4479360;32;33710;-84
2022/06/08 06:45:48;;;;;;;2.75;1.40;;;;;;;22.14;65.14;98955.31;4478978;32;33574;-84
2022/06/08 06:48:19;;;;;;;2.50;1.80;;;;;;;22.35;64.99;98949.47;4478973;32;33219;-84
2022/06/08 06:50:47;;;;;;;3.43;1.73;;;;;;;22.22;65.67;98952.16;4476016;32;33065;-84
2022/06/08 06:53:16;;;;;;;2.67;1.60;;;;;;;22.65;64.65;98941.03;4484623;32;34039;-84
2022/06/08 06:55:46;;;;;;;2.97;1.92;;;;;;;22.60;64.08;98940.56;4478863;32;33319;-84
2022/06/08 06:58:15;;;;;;;5.15;2.47;;;;;;;22.91;63.82;98925.84;4479271;32;34090;-84
2022/06/08 07:00:44;;;;;;;3.33;1.80;;;;;;;23.27;62.65;98920.50;4464958;32;33414;-84
2022/06/08 07:03:13;;;;;;;2.15;1.50;;;;;;;23.24;62.61;98921.59;4463715;32;34694;-84
2022/06/08 07:05:45;;;;;;;2.30;1.58;;;;;;;23.41;63.38;98915.84;4469023;32;33954;-84
2022/06/08 07:08:14;;;;;;;3.35;1.73;;;;;;;23.55;62.23;98908.59;4468123;32;33319;-84
2022/06/08 07:11:32;;;;;;;2.12;1.35;;;;;;;23.37;63.43;98910.91;4477663;32;33574;-85
2022/06/08 07:13:33;;;;;;;2.15;1.55;;;;;;;23.61;61.98;98908.12;4478704;32;34079;-85
2022/06/08 07:16:06;;;;;;;2.45;1.42;;;;;;;23.89;61.54;98900.62;4478368;32;33524;-84
2022/06/08 07:18:36;;;;;;;3.05;1.62;;;;;;;23.83;61.13;98902.81;4479344;32;33527;-85
2022/06/08 07:21:06;;;;;;;3.85;1.65;;;;;;;24.04;61.41;98904.69;4484026;32;33468;-85
2022/06/08 07:23:35;;;;;;;3.45;1.65;;;;;;;23.84;60.68;98901.84;4484024;32;32893;-85
2022/06/08 07:26:04;;;;;;;2.80;1.62;;;;;;;24.15;60.60;98909.13;4479033;32;34456;-84
2022/06/08 07:28:33;;;;;;;2.95;1.42;;;;;;;24.61;57.80;98902.69;4479186;32;33655;-84
2022/06/08 07:31:02;;;;;;;3.75;2.05;;;;;;;24.34;58.14;98895.19;4466183;32;34424;-85
2022/06/08 07:33:33;;;;;;;3.40;1.90;;;;;;;23.82;60.19;98895.84;4463335;32;34798;-85
2022/06/08 07:36:02;;;;;;;2.87;1.45;;;;;;;24.24;59.81;98895.94;4469112;32;33617;-85
2022/06/08 07:38:32;;;;;;;2.28;1.35;;;;;;;24.61;59.84;98886.78;4475065;32;32968;-85
2022/06/08 07:41:01;;;;;;;3.60;1.67;;;;;;;24.90;60.15;98890.44;4463140;32;33932;-85
2022/06/08 07:43:30;;;;;;;5.18;2.20;;;;;;;25.37;55.59;98899.78;4471716;32;33896;-85
2022/06/08 07:45:59;;;;;;;3.35;1.80;;;;;;;25.72;55.54;98894.03;4475652;32;34442;-85
2022/06/08 07:51:15;;;;;;;3.60;1.77;;;;;;;25.82;53.65;98899.38;4480580;32;34339;-85
2022/06/08 07:53:45;;;;;;;4.05;1.65;;;;;;;26.06;52.24;98897.19;4478921;32;34634;-85
2022/06/08 07:56:14;;;;;;;3.05;2.17;;;;;;;26.15;51.59;98901.69;4476259;32;33343;-85
2022/06/08 07:58:43;;;;;;;3.72;2.33;;;;;;;26.22;52.02;98901.13;4479318;32;33156;-85
2022/06/08 08:01:12;;;;;;;3.97;2.08;;;;;;;26.43;52.34;98895.66;4480592;32;34388;-85
2022/06/08 08:03:41;;;;;;;3.80;1.98;;;;;;;26.55;50.56;98886.59;4480928;32;150440;-85
2022/06/08 08:06:10;;;;;;;4.35;2.28;;;;;;;26.48;51.13;98896.06;4478404;32;33375;-85
2022/06/08 08:08:39;;;;;;;4.53;1.80;;;;;;;26.88;49.67;98889.75;4478857;32;32811;-85
2022/06/08 08:11:09;;;;;;;4.50;1.90;;;;;;;26.99;49.82;98893.09;4478678;32;33646;-85
2022/06/08 08:13:38;;;;;;;3.60;2.00;;;;;;;26.81;50.98;98892.16;4478937;32;33584;-85
2022/06/08 08:16:08;;;;;;;3.40;1.62;;;;;;;27.20;47.61;98900.88;4484117;32;33867;-85
2022/06/08 08:18:37;;;;;;;3.05;1.70;;;;;;;26.83;49.09;98894.69;4478736;32;34298;-85
2022/06/08 08:21:05;;;;;;;4.53;2.30;;;;;;;27.03;49.86;98907.78;4468989;32;33969;-86
2022/06/08 08:23:34;;;;;;;3.40;1.80;;;;;;;26.93;51.12;98906.13;4468088;31;33946;-86
2022/06/08 08:26:03;;;;;;;3.78;1.92;;;;;;;27.01;50.10;98893.78;4478361;32;33978;-86
2022/06/08 08:28:33;;;;;;;3.70;1.83;;;;;;;27.12;49.83;98891.94;4483678;32;33150;-86
2022/06/08 08:31:02;;;;;;;6.50;1.65;;;;;;;27.39;49.51;98899.16;4482835;32;33792;-86
2022/06/08 08:33:37;;;;;;;3.65;1.95;;;;;;;27.60;48.00;98902.41;4478896;32;34109;-86
2022/06/08 08:36:06;;;;;;;3.15;1.62;;;;;;;27.23;48.67;98891.78;4477284;32;34026;-86
2022/06/08 08:38:35;;;;;;;4.03;1.92;;;;;;;27.07;50.00;98891.53;4477309;32;34094;-86
2022/06/08 08:41:04;;;;;;;3.95;2.33;;;;;;;27.26;48.95;98886.16;4477730;32;34277;-86
2022/06/08 08:43:37;;;;;;;3.17;1.85;;;;;;;27.39;47.68;98883.16;4483362;32;32716;-86
2022/06/08 08:46:20;;;;;;;3.67;2.17;;;;;;;27.09;49.44;98879.75;4477718;32;33618;-85
2022/06/08 08:48:52;;;;;;;4.18;2.00;;;;;;;27.32;47.34;98890.06;4478116;32;34129;-86
2022/06/08 08:51:25;;;;;;;4.78;2.17;;;;;;;27.13;47.89;98891.78;4475797;32;34350;-86
2022/06/08 08:54:05;;;;;;;3.42;1.80;;;;;;;27.06;49.83;98888.00;4476032;32;33815;-86
2022/06/08 08:56:37;;;;;;;4.40;2.57;;;;;;;27.29;49.37;98891.19;4476888;32;34686;-87
2022/06/08 08:59:13;;;;;;;4.43;2.20;;;;;;;27.44;48.87;98894.22;4489193;32;33512;-86
2022/06/08 09:01:44;;;;;;;3.47;1.98;;;;;;;27.41;49.18;98894.50;4482244;32;33685;-85
2022/06/08 09:04:23;;;;;;;3.10;1.95;;;;;;;27.95;46.82;98892.81;4475697;32;34005;-86
2022/06/08 09:06:56;;;;;;;3.78;1.92;;;;;;;27.56;48.57;98892.19;4477147;32;34299;-86
2022/06/08 09:09:30;;;;;;;4.47;2.17;;;;;;;27.18;49.77;98892.19;4476794;32;32462;-86
2022/06/08 09:12:01;;;;;;;4.05;2.20;;;;;;;27.64;48.17;98895.81;4477706;32;33917;-86
2022/06/08 09:14:57;;;;;;;5.12;2.37;;;;;;;27.86;48.40;98891.91;4478221;32;33934;-86
2022/06/08 09:17:32;;;;;;;5.25;2.60;;;;;;;27.97;48.67;98888.19;4481348;32;34265;-86
2022/06/08 09:20:06;;;;;;;4.62;2.35;;;;;;;28.19;47.04;98888.72;4474884;32;33487;-86
2022/06/08 09:22:37;;;;;;;3.10;1.95;;;;;;;28.16;47.65;98883.72;4461946;32;33631;-86
2022/06/08 09:25:25;;;;;;;5.57;3.00;;;;;;;28.12;46.98;98885.81;4462598;32;34784;-86
2022/06/08 09:27:56;;;;;;;3.72;1.98;;;;;;;28.31;47.40;98876.84;4461879;32;34442;-86
2022/06/08 09:30:30;;;;;;;4.90;2.37;;;;;;;28.48;47.01;98868.00;4462119;32;34144;-87
2022/06/08 09:33:18;;;;;;;4.35;1.90;;;;;;;28.39;46.86;98862.72;4472002;32;33727;-87
2022/06/08 09:35:56;;;;;;;4.03;1.90;;;;;;;28.61;47.17;98864.94;4484641;32;34132;-86
2022/06/08 09:38:26;;;;;;;3.62;2.05;;;;;;;28.28;47.29;98855.81;4480092;32;35349;-86
2022/06/08 09:40:56;;;;;;;;;;;;;;;28.90;45.62;98851.28;4480482;32;34442;-87
2022/06/08 09:43:54;;;;;;;5.53;1.77;;;;;;;29.12;45.20;98847.28;4476114;32;33571;-87
2022/06/08 09:52:11;;;;;;;;;;;;;;;29.30;44.35;98831.12;4465304;32;33440;-87
2022/06/08 09:54:55;;;;;;;3.58;2.05;;;;;;;29.16;44.64;98831.75;4465546;32;33586;-87
2022/06/08 09:57:42;;;;;;;3.37;1.92;;;;;;;29.25;44.34;98814.75;4485454;32;34157;-87
2022/06/08 10:00:21;;;;;;;3.65;2.00;;;;;;;29.25;43.48;98814.75;4470215;32;34747;-87
2022/06/08 10:03:10;;;;;;;4.85;2.17;;;;;;;28.80;44.02;98807.00;4465196;32;33538;-87
2022/06/08 10:05:47;;;;;;;3.17;1.80;;;;;;;29.20;43.99;98803.72;4471166;32;34037;-87
2022/06/08 10:08:21;;;;;;;3.40;1.90;;;;;;;29.15;44.75;98800.69;4479157;32;34805;-87
2022/06/08 10:10:58;;;;;;;3.25;1.95;;;;;;;29.30;44.06;98800.91;4480288;32;33621;-87
2022/06/08 10:13:31;;;;;;;2.60;1.70;;;;;;;29.28;43.13;98801.06;4475507;32;33941;-87
2022/06/08 10:16:03;;;;;;;3.95;1.80;;;;;;;29.34;43.44;98792.44;4479960;32;34358;-88
2022/06/08 10:18:39;;;;;;;3.97;1.92;;;;;;;29.24;43.35;98797.06;4489052;32;34515;-87
2022/06/08 10:21:14;;;;;;;3.35;1.70;;;;;;;29.42;43.15;98793.44;4479169;32;33871;-87
2022/06/08 10:23:49;;;;;;;4.07;1.98;;;;;;;29.48;41.94;98795.44;4479677;32;32870;-87
2022/06/08 10:26:24;;;;;;;4.07;1.90;;;;;;;29.73;41.52;98791.88;4479603;32;34694;-87
2022/06/08 10:28:58;;;;;;;3.78;2.35;;;;;;;29.96;42.10;98783.19;4479685;32;33919;-89
2022/06/08 10:31:32;;;;;;;3.28;1.77;;;;;;;29.84;42.32;98784.53;4479184;32;34529;-87
2022/06/08 10:34:09;;;;;;;4.53;1.90;;;;;;;29.70;41.60;98794.88;4477530;32;33063;-87
2022/06/08 10:36:39;;;;;;;3.40;1.30;;;;;;;30.08;40.26;98776.50;4461860;32;34258;-87
2022/06/08 10:39:12;;;;;;;4.18;1.67;;;;;;;30.15;40.63;98782.03;4461842;32;34766;-87
2022/06/08 10:44:47;;;;;;;3.17;1.65;;;;;;;30.06;39.37;98767.84;4471579;32;33038;-87
2022/06/08 10:47:27;;;;;;;4.12;2.58;;;;;;;30.04;39.37;98759.16;4469754;32;34567;-87
2022/06/08 10:50:23;;;;;;;2.93;1.47;;;;;;;30.33;37.86;98755.12;4466045;32;34641;-87
2022/06/08 10:52:52;;;;;;;2.05;1.40;;;;;;;30.08;37.29;98754.28;4463851;32;34637;-87
2022/06/08 10:55:45;;;;;;;2.25;1.42;;;;;;;30.19;36.80;98760.13;4469196;32;33601;-87
2022/06/08 10:58:17;;;;;;;1.48;1.05;;;;;;;30.39;36.29;98757.94;4458779;32;35551;-87
2022/06/08 11:01:13;;;;;;;2.50;1.23;;;;;;;30.42;37.26;98746.06;4474750;32;34530;-88
2022/06/08 11:04:06;;;;;;;2.50;1.40;;;;;;;30.85;37.09;98752.00;4478095;31;33839;-88
2022/06/08 11:06:59;;;;;;;2.05;1.30;;;;;;;31.19;35.96;98740.97;4473330;31;32677;-88
2022/06/08 11:09:55;;;;;;;3.33;1.87;;;;;;;31.50;34.74;98740.16;4472347;31;33605;-87
2022/06/08 11:12:32;;;;;;;1.80;1.30;;;;;;;31.86;33.20;98739.56;4473515;31;35022;-87
2022/06/08 11:15:05;;;;;;;1.58;0.90;;;;;;;31.95;32.45;98743.03;4477193;31;33976;-88
2022/06/08 11:17:36;;;;;;;2.95;1.70;;;;;;;31.65;33.08;98740.22;4468738;32;34145;-88
2022/06/08 11:20:13;;;;;;;2.72;1.52;;;;;;;31.57;33.71;98738.44;4469563;32;33623;-88
2022/06/08 11:22:46;;;;;;;3.33;1.40;;;;;;;31.40;32.89;98742.22;4478923;32;34366;-88
2022/06/08 11:25:18;;;;;;;2.58;1.33;;;;;;;31.56;33.68;98741.31;4480676;32;34633;-87
2022/06/08 11:28:26;;;;;;;1.87;1.12;;;;;;;31.78;33.00;98728.91;4479257;32;33331;-88
2022/06/08 11:30:57;;;;;;;2.40;1.37;;;;;;;31.76;34.31;98721.03;4479184;32;33737;-88
2022/06/08 11:34:00;;;;;;;2.72;1.30;;;;;;;31.23;34.01;98728.87;4477472;32;34830;-88
2022/06/08 11:36:54;;;;;;;2.97;1.30;;;;;;;31.15;32.84;98731.62;4467316;32;34526;-88
2022/06/08 11:39:29;;;;;;;1.50;0.93;;;;;;;31.08;33.49;98719.13;4470814;32;33481;-88
2022/06/08 11:42:16;;;;;;;1.85;0.90;;;;;;;30.76;34.04;98721.72;4478241;32;33584;-88
2022/06/08 11:44:51;;;;;;;1.90;1.12;;;;;;;30.20;34.75;98718.16;4472213;32;34278;-88
2022/06/08 11:47:23;;;;;;;12.18;1.42;;;;;;;30.31;34.90;98727.72;4467657;32;34041;-88
2022/06/08 11:49:58;;;;;;;2.20;1.35;;;;;;;30.60;35.84;98727.97;4468909;32;34372;-88
2022/06/08 11:52:36;;;;;;;1.90;1.02;;;;;;;30.36;35.50;98722.69;4468779;32;33936;-88
2022/06/08 11:55:17;;;;;;;2.35;1.42;;;;;;;30.63;36.92;98732.12;4474951;32;34042;-88
2022/06/08 11:57:50;;;;;;;2.87;1.62;;;;;;;30.54;34.79;98731.34;4478711;32;33711;-88
2022/06/08 12:00:26;;;;;;;2.58;1.42;;;;;;;30.47;35.15;98730.38;4484584;32;34044;-87
2022/06/08 12:03:00;;;;;;;2.53;1.27;;;;;;;30.55;35.08;98732.19;4479999;32;33639;-88
2022/06/08 12:05:33;;;;;;;2.30;1.52;;;;;;;30.57;36.24;98733.69;4478725;32;34681;-88
2022/06/08 12:08:10;;;;;;;2.30;1.10;;;;;;;30.51;35.34;98733.50;4479139;32;34607;-88
2022/06/08 12:11:01;;;;;;;2.30;1.10;;;;;;;30.85;35.83;98735.09;4478734;32;33116;-88
2022/06/08 12:13:31;;;;;;;1.80;1.17;;;;;;;31.08;33.90;98727.16;4479076;32;33825;-88
2022/06/08 12:16:04;;;;;;;3.15;1.77;;;;;;;31.19;33.89;98732.09;4483863;32;34358;-88
2022/06/08 12:18:47;;;;;;;3.37;1.48;;;;;;;30.09;42.60;98737.25;4483784;32;34286;-88